
Distance (Route):
Temperature : 4.4°C
Humidity : 0%
Pressure : 0hPa| Receiver | Frames | First received | Last received |
|---|---|---|---|
| WB7NNF | 341 | 2026-08-30 05:40:11 | 2026-08-30 07:57:57 |
| Receiver | Date | Latitude | Longitude | Direction | Speed | Altitude | Climb | Temperature | Humidity | Pressure | Voltage | Killtimer | Uptime | BKT | XDATA |
|---|---|---|---|---|---|---|---|---|---|---|---|---|---|---|---|
| WB7NNF | 2026-08-30 07:57:57 | 47.64905 | -117.04225 | 98° | 31km/h | 1798m | -7.7m/s | 4.4°C | 0% | 0hPa | 0V | 00:00:00 | 00:00:00 | 00:00:00 | |
| WB7NNF | 2026-08-30 07:57:35 | 47.64927 | -117.04465 | 102° | 31km/h | 1959m | -7.7m/s | 3.1°C | 0% | 0hPa | 0V | 00:00:00 | 00:00:00 | 00:00:00 | |
| WB7NNF | 2026-08-30 07:57:15 | 47.64939 | -117.04712 | 90° | 31km/h | 2118m | -7.5m/s | 1.7°C | 0% | 0hPa | 0V | 00:00:00 | 00:00:00 | 00:00:00 | |
| WB7NNF | 2026-08-30 07:56:54 | 47.64939 | -117.04975 | 89° | 35km/h | 2259m | -6.8m/s | 0.6°C | 0% | 0hPa | 0V | 00:00:00 | 00:00:00 | 00:00:00 | |
| WB7NNF | 2026-08-30 07:56:34 | 47.64931 | -117.05273 | 92° | 38km/h | 2403m | -6.9m/s | -0.6°C | 0% | 0hPa | 0V | 00:00:00 | 00:00:00 | 00:00:00 | |
| WB7NNF | 2026-08-30 07:56:13 | 47.64922 | -117.05553 | 86° | 38km/h | 2543m | -7.1m/s | -1.1°C | 0% | 0hPa | 0V | 00:00:00 | 00:00:00 | 00:00:00 | |
| WB7NNF | 2026-08-30 07:55:53 | 47.64890 | -117.05840 | 82° | 42km/h | 2697m | -7.3m/s | -2.1°C | 0% | 0hPa | 0V | 00:00:00 | 00:00:00 | 00:00:00 | |
| WB7NNF | 2026-08-30 07:55:32 | 47.64838 | -117.06126 | 71° | 40km/h | 2840m | -7.1m/s | -3.0°C | 0% | 0hPa | 0V | 00:00:00 | 00:00:00 | 00:00:00 | |
| WB7NNF | 2026-08-30 07:55:12 | 47.64784 | -117.06474 | 83° | 44km/h | 2990m | -7.1m/s | -4.0°C | 0% | 0hPa | 0V | 00:00:00 | 00:00:00 | 00:00:00 | |
| WB7NNF | 2026-08-30 07:54:51 | 47.64748 | -117.06809 | 90° | 44km/h | 3135m | -7.0m/s | -4.9°C | 0% | 0hPa | 0V | 00:00:00 | 00:00:00 | 00:00:00 | |
| WB7NNF | 2026-08-30 07:54:31 | 47.64734 | -117.07126 | 88° | 44km/h | 3287m | -7.4m/s | -5.7°C | 0% | 0hPa | 0V | 00:00:00 | 00:00:00 | 00:00:00 | |
| WB7NNF | 2026-08-30 07:54:10 | 47.64747 | -117.07434 | 95° | 40km/h | 3437m | -7.6m/s | -6.6°C | 0% | 0hPa | 0V | 00:00:00 | 00:00:00 | 00:00:00 | |
| WB7NNF | 2026-08-30 07:53:50 | 47.64780 | -117.07760 | 106° | 42km/h | 3598m | -7.5m/s | -7.6°C | 0% | 0hPa | 0V | 00:00:00 | 00:00:00 | 00:00:00 | |
| WB7NNF | 2026-08-30 07:53:29 | 47.64829 | -117.08072 | 105° | 38km/h | 3760m | -7.8m/s | -8.6°C | 0% | 0hPa | 0V | 00:00:00 | 00:00:00 | 00:00:00 | |
| WB7NNF | 2026-08-30 07:53:08 | 47.64901 | -117.08350 | 117° | 42km/h | 3912m | -7.7m/s | -9.6°C | 0% | 0hPa | 0V | 00:00:00 | 00:00:00 | 00:00:00 | |
| WB7NNF | 2026-08-30 07:52:48 | 47.64987 | -117.08665 | 119° | 38km/h | 4078m | -7.8m/s | -10.7°C | 0% | 0hPa | 0V | 00:00:00 | 00:00:00 | 00:00:00 | |
| WB7NNF | 2026-08-30 07:52:27 | 47.65099 | -117.08941 | 114° | 40km/h | 4236m | -7.9m/s | -11.6°C | 0% | 0hPa | 0V | 00:00:00 | 00:00:00 | 00:00:00 | |
| WB7NNF | 2026-08-30 07:52:07 | 47.65210 | -117.09192 | 120° | 35km/h | 4403m | -8.1m/s | -12.7°C | 0% | 0hPa | 0V | 00:00:00 | 00:00:00 | 00:00:00 | |
| WB7NNF | 2026-08-30 07:51:46 | 47.65310 | -117.09411 | 117° | 29km/h | 4561m | -8.1m/s | -13.7°C | 0% | 0hPa | 0V | 00:00:00 | 00:00:00 | 00:00:00 | |
| WB7NNF | 2026-08-30 07:51:26 | 47.65405 | -117.09615 | 124° | 37km/h | 4730m | -8.0m/s | -14.7°C | 0% | 0hPa | 0V | 00:00:00 | 00:00:00 | 00:00:00 | |
| WB7NNF | 2026-08-30 07:51:05 | 47.65525 | -117.09830 | 134° | 38km/h | 4891m | -8.2m/s | -15.8°C | 0% | 0hPa | 0V | 00:00:00 | 00:00:00 | 00:00:00 | |
| WB7NNF | 2026-08-30 07:50:45 | 47.65641 | -117.10032 | 122° | 37km/h | 5065m | -8.6m/s | -17.0°C | 0% | 0hPa | 0V | 00:00:00 | 00:00:00 | 00:00:00 | |
| WB7NNF | 2026-08-30 07:50:25 | 47.65743 | -117.10259 | 118° | 35km/h | 5233m | -8.6m/s | -18.2°C | 0% | 0hPa | 0V | 00:00:00 | 00:00:00 | 00:00:00 | |
| WB7NNF | 2026-08-30 07:50:04 | 47.65830 | -117.10499 | 115° | 37km/h | 5415m | -8.6m/s | -19.7°C | 0% | 0hPa | 0V | 00:00:00 | 00:00:00 | 00:00:00 | |
| WB7NNF | 2026-08-30 07:49:43 | 47.65898 | -117.10724 | 118° | 33km/h | 5591m | -8.8m/s | -21.2°C | 0% | 0hPa | 0V | 00:00:00 | 00:00:00 | 00:00:00 | |
| WB7NNF | 2026-08-30 07:49:23 | 47.65975 | -117.10985 | 111° | 40km/h | 5784m | -9.8m/s | -22.6°C | 0% | 0hPa | 0V | 00:00:00 | 00:00:00 | 00:00:00 | |
| WB7NNF | 2026-08-30 07:49:02 | 47.66066 | -117.11240 | 119° | 38km/h | 5964m | -8.0m/s | -24.1°C | 0% | 0hPa | 0V | 00:00:00 | 00:00:00 | 00:00:00 | |
| WB7NNF | 2026-08-30 07:48:42 | 47.66178 | -117.11530 | 125° | 46km/h | 6137m | -8.3m/s | -25.7°C | 0% | 0hPa | 0V | 00:00:00 | 00:00:00 | 00:00:00 | |
| WB7NNF | 2026-08-30 07:48:21 | 47.66307 | -117.11804 | 123° | 44km/h | 6300m | -7.8m/s | -25.6°C | 0% | 0hPa | 0V | 00:00:00 | 00:00:00 | 00:00:00 | |
| WB7NNF | 2026-08-30 07:48:01 | 47.66449 | -117.12064 | 139° | 44km/h | 6464m | -7.1m/s | -26.8°C | 0% | 0hPa | 0V | 00:00:00 | 00:00:00 | 00:00:00 | |
| WB7NNF | 2026-08-30 07:47:40 | 47.66624 | -117.12286 | 146° | 47km/h | 6625m | -7.7m/s | -28.1°C | 0% | 0hPa | 0V | 00:00:00 | 00:00:00 | 00:00:00 | |
| WB7NNF | 2026-08-30 07:47:19 | 47.66807 | -117.12481 | 149° | 46km/h | 6781m | -7.7m/s | -29.6°C | 0% | 0hPa | 0V | 00:00:00 | 00:00:00 | 00:00:00 | |
| WB7NNF | 2026-08-30 07:46:59 | 47.66997 | -117.12681 | 146° | 44km/h | 6944m | -7.4m/s | -31.0°C | 0% | 0hPa | 0V | 00:00:00 | 00:00:00 | 00:00:00 | |
| WB7NNF | 2026-08-30 07:46:37 | 47.67180 | -117.12887 | 141° | 44km/h | 7106m | -7.6m/s | -32.3°C | 0% | 0hPa | 0V | 00:00:00 | 00:00:00 | 00:00:00 | |
| WB7NNF | 2026-08-30 07:46:16 | 47.67364 | -117.13126 | 137° | 44km/h | 7277m | -7.8m/s | -33.5°C | 0% | 0hPa | 0V | 00:00:00 | 00:00:00 | 00:00:00 | |
| WB7NNF | 2026-08-30 07:45:54 | 47.67551 | -117.13360 | 140° | 44km/h | 7451m | -8.2m/s | -35.0°C | 0% | 0hPa | 0V | 00:00:00 | 00:00:00 | 00:00:00 | |
| WB7NNF | 2026-08-30 07:45:33 | 47.67714 | -117.13585 | 139° | 44km/h | 7612m | -8.2m/s | -36.5°C | 0% | 0hPa | 0V | 00:00:00 | 00:00:00 | 00:00:00 | |
| WB7NNF | 2026-08-30 07:45:13 | 47.67891 | -117.13812 | 141° | 46km/h | 7784m | -8.4m/s | -38.0°C | 0% | 0hPa | 0V | 00:00:00 | 00:00:00 | 00:00:00 | |
| WB7NNF | 2026-08-30 07:44:52 | 47.68071 | -117.14018 | 143° | 44km/h | 7957m | -8.4m/s | -39.2°C | 0% | 0hPa | 0V | 00:00:00 | 00:00:00 | 00:00:00 | |
| WB7NNF | 2026-08-30 07:44:31 | 47.68283 | -117.14180 | 158° | 49km/h | 8122m | -8.0m/s | -40.0°C | 0% | 0hPa | 0V | 00:00:00 | 00:00:00 | 00:00:00 | |
| WB7NNF | 2026-08-30 07:44:11 | 47.68548 | -117.14308 | 162° | 51km/h | 8299m | -8.4m/s | -40.3°C | 0% | 0hPa | 0V | 00:00:00 | 00:00:00 | 00:00:00 | |
| WB7NNF | 2026-08-30 07:43:50 | 47.68800 | -117.14462 | 160° | 55km/h | 8467m | -8.5m/s | -41.3°C | 0% | 0hPa | 0V | 00:00:00 | 00:00:00 | 00:00:00 | |
| WB7NNF | 2026-08-30 07:43:30 | 47.69110 | -117.14618 | 168° | 69km/h | 8644m | -8.3m/s | -41.8°C | 0% | 0hPa | 0V | 00:00:00 | 00:00:00 | 00:00:00 | |
| WB7NNF | 2026-08-30 07:43:09 | 47.69465 | -117.14712 | 174° | 64km/h | 8815m | -8.4m/s | -42.2°C | 0% | 0hPa | 0V | 00:00:00 | 00:00:00 | 00:00:00 | |
| WB7NNF | 2026-08-30 07:42:49 | 47.69769 | -117.14769 | 171° | 51km/h | 8983m | -8.1m/s | -42.5°C | 0% | 0hPa | 0V | 00:00:00 | 00:00:00 | 00:00:00 | |
| WB7NNF | 2026-08-30 07:42:28 | 47.70012 | -117.14843 | 176° | 49km/h | 9139m | -8.0m/s | -41.5°C | 0% | 0hPa | 0V | 00:00:00 | 00:00:00 | 00:00:00 | |
| WB7NNF | 2026-08-30 07:42:08 | 47.70272 | -117.14932 | 156° | 51km/h | 9313m | -8.7m/s | -41.3°C | 0% | 0hPa | 0V | 00:00:00 | 00:00:00 | 00:00:00 | |
| WB7NNF | 2026-08-30 07:41:47 | 47.70457 | -117.15100 | 141° | 37km/h | 9484m | -8.6m/s | -41.3°C | 0% | 0hPa | 0V | 00:00:00 | 00:00:00 | 00:00:00 | |
| WB7NNF | 2026-08-30 07:41:27 | 47.70626 | -117.15314 | 143° | 49km/h | 9669m | -8.8m/s | -40.6°C | 0% | 0hPa | 0V | 00:00:00 | 00:00:00 | 00:00:00 | |
| WB7NNF | 2026-08-30 07:41:07 | 47.70826 | -117.15530 | 148° | 47km/h | 9841m | -8.6m/s | -41.0°C | 0% | 0hPa | 0V | 00:00:00 | 00:00:00 | 00:00:00 | |
| WB7NNF | 2026-08-30 07:40:46 | 47.71011 | -117.15723 | 141° | 35km/h | 10022m | -9.0m/s | -41.9°C | 0% | 0hPa | 0V | 00:00:00 | 00:00:00 | 00:00:00 | |
| WB7NNF | 2026-08-30 07:40:25 | 47.71112 | -117.15909 | 119° | 31km/h | 10204m | -9.2m/s | -43.2°C | 0% | 0hPa | 0V | 00:00:00 | 00:00:00 | 00:00:00 | |
| WB7NNF | 2026-08-30 07:40:05 | 47.71147 | -117.16161 | 108° | 37km/h | 10402m | -9.7m/s | -41.6°C | 0% | 0hPa | 0V | 00:00:00 | 00:00:00 | 00:00:00 | |
| WB7NNF | 2026-08-30 07:39:44 | 47.71187 | -117.16434 | 102° | 37km/h | 10605m | -10.1m/s | -41.6°C | 0% | 0hPa | 0V | 00:00:00 | 00:00:00 | 00:00:00 | |
| WB7NNF | 2026-08-30 07:39:23 | 47.71232 | -117.16675 | 103° | 35km/h | 10797m | -10.0m/s | -41.8°C | 0% | 0hPa | 0V | 00:00:00 | 00:00:00 | 00:00:00 | |
| WB7NNF | 2026-08-30 07:38:42 | 47.71278 | -117.17193 | 99° | 33km/h | 11198m | -10.4m/s | -42.6°C | 0% | 0hPa | 0V | 00:00:00 | 00:00:00 | 00:00:00 | |
| WB7NNF | 2026-08-30 07:38:22 | 47.71301 | -117.17457 | 92° | 33km/h | 11410m | -10.4m/s | -43.0°C | 0% | 0hPa | 0V | 00:00:00 | 00:00:00 | 00:00:00 | |
| WB7NNF | 2026-08-30 07:38:01 | 47.71288 | -117.17720 | 89° | 37km/h | 11618m | -10.2m/s | -43.7°C | 0% | 0hPa | 0V | 00:00:00 | 00:00:00 | 00:00:00 | |
| WB7NNF | 2026-08-30 07:37:41 | 47.71296 | -117.18007 | 96° | 35km/h | 11837m | -10.6m/s | -44.2°C | 0% | 0hPa | 0V | 00:00:00 | 00:00:00 | 00:00:00 | |
| WB7NNF | 2026-08-30 07:37:20 | 47.71303 | -117.18335 | 93° | 49km/h | 12051m | -11.2m/s | -44.7°C | 0% | 0hPa | 0V | 00:00:00 | 00:00:00 | 00:00:00 | |
| WB7NNF | 2026-08-30 07:37:00 | 47.71323 | -117.18687 | 95° | 42km/h | 12277m | -10.7m/s | -45.7°C | 0% | 0hPa | 0V | 00:00:00 | 00:00:00 | 00:00:00 | |
| WB7NNF | 2026-08-30 07:36:39 | 47.71297 | -117.19022 | 82° | 49km/h | 12497m | -11.5m/s | -45.8°C | 0% | 0hPa | 0V | 00:00:00 | 00:00:00 | 00:00:00 | |
| WB7NNF | 2026-08-30 07:36:19 | 47.71295 | -117.19370 | 97° | 35km/h | 12736m | -11.8m/s | -45.0°C | 0% | 0hPa | 0V | 00:00:00 | 00:00:00 | 00:00:00 | |
| WB7NNF | 2026-08-30 07:35:58 | 47.71278 | -117.19562 | 60° | 24km/h | 12962m | -11.3m/s | -45.5°C | 0% | 0hPa | 0V | 00:00:00 | 00:00:00 | 00:00:00 | |
| WB7NNF | 2026-08-30 07:35:38 | 47.71205 | -117.19752 | 65° | 33km/h | 13198m | -11.8m/s | -46.3°C | 0% | 0hPa | 0V | 00:00:00 | 00:00:00 | 00:00:00 | |
| WB7NNF | 2026-08-30 07:35:17 | 47.71127 | -117.19992 | 72° | 35km/h | 13427m | -11.9m/s | -46.6°C | 0% | 0hPa | 0V | 00:00:00 | 00:00:00 | 00:00:00 | |
| WB7NNF | 2026-08-30 07:34:57 | 47.71057 | -117.20264 | 63° | 37km/h | 13671m | -11.7m/s | -47.1°C | 0% | 0hPa | 0V | 00:00:00 | 00:00:00 | 00:00:00 | |
| WB7NNF | 2026-08-30 07:34:36 | 47.70993 | -117.20503 | 76° | 40km/h | 13913m | -12.4m/s | -47.4°C | 0% | 0hPa | 0V | 00:00:00 | 00:00:00 | 00:00:00 | |
| WB7NNF | 2026-08-30 07:34:16 | 47.70946 | -117.20877 | 86° | 53km/h | 14177m | -13.0m/s | -48.1°C | 0% | 0hPa | 0V | 00:00:00 | 00:00:00 | 00:00:00 | |
| WB7NNF | 2026-08-30 07:33:55 | 47.70912 | -117.21266 | 81° | 44km/h | 14443m | -12.9m/s | -48.8°C | 0% | 0hPa | 0V | 00:00:00 | 00:00:00 | 00:00:00 | |
| WB7NNF | 2026-08-30 07:33:34 | 47.70853 | -117.21597 | 70° | 46km/h | 14698m | -12.9m/s | -49.6°C | 0% | 0hPa | 0V | 00:00:00 | 00:00:00 | 00:00:00 | |
| WB7NNF | 2026-08-30 07:33:14 | 47.70781 | -117.21908 | 66° | 38km/h | 14964m | -12.6m/s | -50.1°C | 0% | 0hPa | 0V | 00:00:00 | 00:00:00 | 00:00:00 | |
| WB7NNF | 2026-08-30 07:32:53 | 47.70729 | -117.22194 | 87° | 42km/h | 15222m | -13.2m/s | -50.4°C | 0% | 0hPa | 0V | 00:00:00 | 00:00:00 | 00:00:00 | |
| WB7NNF | 2026-08-30 07:32:33 | 47.70707 | -117.22450 | 73° | 31km/h | 15478m | -10.9m/s | -50.5°C | 0% | 0hPa | 0V | 00:00:00 | 00:00:00 | 00:00:00 | |
| WB7NNF | 2026-08-30 07:31:58 | 47.70589 | -117.22847 | 66° | 46km/h | 15867m | -11.6m/s | -50.9°C | 0% | 0hPa | 0V | 00:00:00 | 00:00:00 | 00:00:00 | |
| WB7NNF | 2026-08-30 07:25:01 | 47.69136 | -117.24479 | 31° | 16km/h | 21652m | -17.5m/s | 0°C | 0% | 0hPa | 0V | 00:00:00 | 00:00:00 | 00:00:00 | |
| WB7NNF | 2026-08-30 07:24:03 | 47.68978 | -117.24566 | 343° | 5km/h | 22703m | -18.8m/s | -52.0°C | 0% | 0hPa | 0V | 00:00:00 | 00:00:00 | 00:00:00 | |
| WB7NNF | 2026-08-30 07:23:35 | 47.68914 | -117.24608 | 89° | 5km/h | 23274m | -20.4m/s | -51.0°C | 0% | 0hPa | 0V | 00:00:00 | 00:00:00 | 00:00:00 | |
| WB7NNF | 2026-08-30 07:22:01 | 47.68672 | -117.24559 | 0° | 0km/h | 25279m | -22.9m/s | -49.9°C | 0% | 0hPa | 0V | 00:00:00 | 00:00:00 | 00:00:00 | |
| WB7NNF | 2026-08-30 07:19:46 | 47.68688 | -117.24377 | 240° | 9km/h | 28852m | -28.6m/s | -46.0°C | 0% | 0hPa | 0V | 00:00:00 | 00:00:00 | 00:00:00 | |
| WB7NNF | 2026-08-30 07:17:02 | 47.68781 | -117.24562 | 250° | 22km/h | 34557m | -36.1m/s | -36.9°C | 0% | 0hPa | 0V | 00:00:00 | 00:00:00 | 00:00:00 | |
| WB7NNF | 2026-08-30 07:16:38 | 47.68801 | -117.24628 | 256° | 20km/h | 34814m | 12.5m/s | -37.2°C | 0% | 0hPa | 0V | 00:00:00 | 00:00:00 | 00:00:00 | |
| WB7NNF | 2026-08-30 07:16:15 | 47.68810 | -117.24579 | 243° | 2km/h | 34650m | 6.4m/s | -37.4°C | 0% | 0hPa | 0V | 00:00:00 | 00:00:00 | 00:00:00 | |
| WB7NNF | 2026-08-30 07:15:54 | 47.68869 | -117.24507 | 234° | 40km/h | 34518m | 7.5m/s | -37.4°C | 0% | 0hPa | 0V | 00:00:00 | 00:00:00 | 00:00:00 | |
| WB7NNF | 2026-08-30 07:15:32 | 47.68925 | -117.24457 | 315° | 9km/h | 34374m | 6.7m/s | -37.3°C | 0% | 0hPa | 0V | 00:00:00 | 00:00:00 | 00:00:00 | |
| WB7NNF | 2026-08-30 07:15:06 | 47.68973 | -117.24406 | 233° | 7km/h | 34190m | 8.3m/s | -36.6°C | 0% | 0hPa | 0V | 00:00:00 | 00:00:00 | 00:00:00 | |
| WB7NNF | 2026-08-30 07:14:41 | 47.69032 | -117.24306 | 214° | 31km/h | 34021m | 7.3m/s | -37.1°C | 0% | 0hPa | 0V | 00:00:00 | 00:00:00 | 00:00:00 | |
| WB7NNF | 2026-08-30 07:14:19 | 47.69131 | -117.24251 | 139° | 9km/h | 33864m | 8.3m/s | -37.2°C | 0% | 0hPa | 0V | 00:00:00 | 00:00:00 | 00:00:00 | |
| WB7NNF | 2026-08-30 07:13:59 | 47.69215 | -117.24270 | 151° | 31km/h | 33723m | 10.1m/s | -37.3°C | 0% | 0hPa | 0V | 00:00:00 | 00:00:00 | 00:00:00 | |
| WB7NNF | 2026-08-30 07:13:17 | 47.69294 | -117.24481 | 28° | 44km/h | 33435m | 5.7m/s | -38.4°C | 0% | 0hPa | 0V | 00:00:00 | 00:00:00 | 00:00:00 | |
| WB7NNF | 2026-08-30 07:12:57 | 47.69232 | -117.24434 | 226° | 42km/h | 33306m | 4.4m/s | -39.0°C | 0% | 0hPa | 0V | 00:00:00 | 00:00:00 | 00:00:00 | |
| WB7NNF | 2026-08-30 07:12:35 | 47.69219 | -117.24439 | 52° | 27km/h | 33176m | 4.4m/s | -39.2°C | 0% | 0hPa | 0V | 00:00:00 | 00:00:00 | 00:00:00 | |
| WB7NNF | 2026-08-30 07:12:14 | 47.69217 | -117.24562 | 119° | 37km/h | 33056m | 9.4m/s | -40.0°C | 0% | 0hPa | 0V | 00:00:00 | 00:00:00 | 00:00:00 | |
| WB7NNF | 2026-08-30 07:11:52 | 47.69210 | -117.24653 | 20° | 44km/h | 32934m | 7.4m/s | -40.8°C | 0% | 0hPa | 0V | 00:00:00 | 00:00:00 | 00:00:00 | |
| WB7NNF | 2026-08-30 07:11:31 | 47.69131 | -117.24714 | 38° | 13km/h | 32815m | 3.2m/s | -40.9°C | 0% | 0hPa | 0V | 00:00:00 | 00:00:00 | 00:00:00 | |
| WB7NNF | 2026-08-30 07:11:11 | 47.69109 | -117.24766 | 5° | 5km/h | 32688m | 6.5m/s | -40.9°C | 0% | 0hPa | 0V | 00:00:00 | 00:00:00 | 00:00:00 | |
| WB7NNF | 2026-08-30 07:10:50 | 47.69095 | -117.24810 | 5° | 26km/h | 32557m | 4.3m/s | -41.3°C | 0% | 0hPa | 0V | 00:00:00 | 00:00:00 | 00:00:00 | |
| WB7NNF | 2026-08-30 07:10:29 | 47.69122 | -117.24870 | 178° | 33km/h | 32421m | 5.2m/s | -41.7°C | 0% | 0hPa | 0V | 00:00:00 | 00:00:00 | 00:00:00 | |
| WB7NNF | 2026-08-30 07:10:09 | 47.69210 | -117.24912 | 178° | 38km/h | 32302m | 10.6m/s | -42.3°C | 0% | 0hPa | 0V | 00:00:00 | 00:00:00 | 00:00:00 | |
| WB7NNF | 2026-08-30 07:09:47 | 47.69348 | -117.24943 | 150° | 51km/h | 32154m | 10.9m/s | -42.7°C | 0% | 0hPa | 0V | 00:00:00 | 00:00:00 | 00:00:00 | |
| WB7NNF | 2026-08-30 07:09:26 | 47.69475 | -117.24976 | 265° | 42km/h | 32018m | 7.8m/s | -43.2°C | 0% | 0hPa | 0V | 00:00:00 | 00:00:00 | 00:00:00 | |
| WB7NNF | 2026-08-30 07:09:05 | 47.69535 | -117.25008 | 230° | 49km/h | 31888m | 6.2m/s | -42.7°C | 0% | 0hPa | 0V | 00:00:00 | 00:00:00 | 00:00:00 | |
| WB7NNF | 2026-08-30 07:08:43 | 47.69618 | -117.25049 | 342° | 29km/h | 31745m | 14.4m/s | -42.3°C | 0% | 0hPa | 0V | 00:00:00 | 00:00:00 | 00:00:00 | |
| WB7NNF | 2026-08-30 07:08:21 | 47.69738 | -117.25120 | 169° | 46km/h | 31589m | 7.1m/s | -42.6°C | 0% | 0hPa | 0V | 00:00:00 | 00:00:00 | 00:00:00 | |
| WB7NNF | 2026-08-30 07:08:00 | 47.69917 | -117.25233 | 164° | 93km/h | 31443m | 3.6m/s | -42.9°C | 0% | 0hPa | 0V | 00:00:00 | 00:00:00 | 00:00:00 | |
| WB7NNF | 2026-08-30 07:07:38 | 47.70084 | -117.25476 | 120° | 46km/h | 31301m | 6.9m/s | -42.8°C | 0% | 0hPa | 0V | 00:00:00 | 00:00:00 | 00:00:00 | |
| WB7NNF | 2026-08-30 07:07:15 | 47.70171 | -117.25769 | 86° | 29km/h | 31172m | 16.8m/s | -43.2°C | 0% | 0hPa | 0V | 00:00:00 | 00:00:00 | 00:00:00 | |
| WB7NNF | 2026-08-30 07:06:46 | 47.70164 | -117.26056 | 34° | 18km/h | 30978m | 13.6m/s | -43.0°C | 0% | 0hPa | 0V | 00:00:00 | 00:00:00 | 00:00:00 | |
| WB7NNF | 2026-08-30 07:06:17 | 47.70038 | -117.26114 | 3° | 47km/h | 30786m | 4.2m/s | -43.2°C | 0% | 0hPa | 0V | 00:00:00 | 00:00:00 | 00:00:00 | |
| WB7NNF | 2026-08-30 07:05:57 | 47.69933 | -117.25999 | 290° | 53km/h | 30653m | 2.3m/s | -43.3°C | 0% | 0hPa | 0V | 00:00:00 | 00:00:00 | 00:00:00 | |
| WB7NNF | 2026-08-30 07:05:32 | 47.69817 | -117.25922 | 337° | 24km/h | 30497m | 1.4m/s | -43.0°C | 0% | 0hPa | 0V | 00:00:00 | 00:00:00 | 00:00:00 | |
| WB7NNF | 2026-08-30 07:05:10 | 47.69708 | -117.25929 | 330° | 26km/h | 30341m | 8.7m/s | -43.0°C | 0% | 0hPa | 0V | 00:00:00 | 00:00:00 | 00:00:00 | |
| WB7NNF | 2026-08-30 07:04:35 | 47.69546 | -117.25780 | 275° | 26km/h | 30100m | 10.1m/s | -42.7°C | 0% | 0hPa | 0V | 00:00:00 | 00:00:00 | 00:00:00 | |
| WB7NNF | 2026-08-30 07:04:14 | 47.69502 | -117.25727 | 305° | 18km/h | 29964m | 10.9m/s | -42.9°C | 0% | 0hPa | 0V | 00:00:00 | 00:00:00 | 00:00:00 | |
| WB7NNF | 2026-08-30 07:03:33 | 47.69484 | -117.25668 | 36° | 49km/h | 29683m | 7.6m/s | -43.6°C | 0% | 0hPa | 0V | 00:00:00 | 00:00:00 | 00:00:00 | |
| WB7NNF | 2026-08-30 07:03:13 | 47.69487 | -117.25720 | 61° | 38km/h | 29551m | 10.1m/s | -44.9°C | 0% | 0hPa | 0V | 00:00:00 | 00:00:00 | 00:00:00 | |
| WB7NNF | 2026-08-30 07:02:52 | 47.69448 | -117.25659 | 263° | 26km/h | 29423m | 11.2m/s | -46.7°C | 0% | 0hPa | 0V | 00:00:00 | 00:00:00 | 00:00:00 | |
| WB7NNF | 2026-08-30 07:02:32 | 47.69456 | -117.25573 | 282° | 47km/h | 29275m | 8.3m/s | -47.5°C | 0% | 0hPa | 0V | 00:00:00 | 00:00:00 | 00:00:00 | |
| WB7NNF | 2026-08-30 07:02:09 | 47.69516 | -117.25444 | 160° | 11km/h | 29139m | 1.1m/s | -47.1°C | 0% | 0hPa | 0V | 00:00:00 | 00:00:00 | 00:00:00 | |
| WB7NNF | 2026-08-30 07:01:49 | 47.69553 | -117.25380 | 179° | 37km/h | 28997m | 8.5m/s | -47.0°C | 0% | 0hPa | 0V | 00:00:00 | 00:00:00 | 00:00:00 | |
| WB7NNF | 2026-08-30 07:01:28 | 47.69633 | -117.25418 | 196° | 35km/h | 28867m | 5.6m/s | -46.5°C | 0% | 0hPa | 0V | 00:00:00 | 00:00:00 | 00:00:00 | |
| WB7NNF | 2026-08-30 07:01:08 | 47.69677 | -117.25514 | 170° | 38km/h | 28731m | 8.8m/s | -46.2°C | 0% | 0hPa | 0V | 00:00:00 | 00:00:00 | 00:00:00 | |
| WB7NNF | 2026-08-30 06:59:52 | 47.69778 | -117.25750 | 152° | 31km/h | 28249m | 6.1m/s | -46.2°C | 0% | 0hPa | 0V | 00:00:00 | 00:00:00 | 00:00:00 | |
| WB7NNF | 2026-08-30 06:59:23 | 47.69872 | -117.25797 | 118° | 18km/h | 28086m | 7.1m/s | -45.9°C | 0% | 0hPa | 0V | 00:00:00 | 00:00:00 | 00:00:00 | |
| WB7NNF | 2026-08-30 06:59:03 | 47.69872 | -117.25883 | 360° | 42km/h | 27951m | 11.1m/s | -45.7°C | 0% | 0hPa | 0V | 00:00:00 | 00:00:00 | 00:00:00 | |
| WB7NNF | 2026-08-30 06:58:42 | 47.69856 | -117.25945 | 350° | 38km/h | 27820m | -0.8m/s | -45.8°C | 0% | 0hPa | 0V | 00:00:00 | 00:00:00 | 00:00:00 | |
| WB7NNF | 2026-08-30 06:58:20 | 47.69838 | -117.25926 | 308° | 11km/h | 27694m | 8.7m/s | -45.8°C | 0% | 0hPa | 0V | 00:00:00 | 00:00:00 | 00:00:00 | |
| WB7NNF | 2026-08-30 06:57:59 | 47.69815 | -117.25822 | 212° | 26km/h | 27560m | 7.5m/s | -45.8°C | 0% | 0hPa | 0V | 00:00:00 | 00:00:00 | 00:00:00 | |
| WB7NNF | 2026-08-30 06:57:37 | 47.69825 | -117.25780 | 11° | 46km/h | 27425m | 1.9m/s | -46.1°C | 0% | 0hPa | 0V | 00:00:00 | 00:00:00 | 00:00:00 | |
| WB7NNF | 2026-08-30 06:57:15 | 47.69832 | -117.25750 | 10° | 27km/h | 27286m | 9.2m/s | -47.0°C | 0% | 0hPa | 0V | 00:00:00 | 00:00:00 | 00:00:00 | |
| WB7NNF | 2026-08-30 06:56:54 | 47.69792 | -117.25660 | 289° | 53km/h | 27154m | 12.0m/s | -47.2°C | 0% | 0hPa | 0V | 00:00:00 | 00:00:00 | 00:00:00 | |
| WB7NNF | 2026-08-30 06:56:33 | 47.69769 | -117.25549 | 339° | 57km/h | 27022m | 10.2m/s | -47.4°C | 0% | 0hPa | 0V | 00:00:00 | 00:00:00 | 00:00:00 | |
| WB7NNF | 2026-08-30 06:56:13 | 47.69776 | -117.25449 | 246° | 18km/h | 26902m | -0.6m/s | -47.8°C | 0% | 0hPa | 0V | 00:00:00 | 00:00:00 | 00:00:00 | |
| WB7NNF | 2026-08-30 06:55:52 | 47.69750 | -117.25386 | 144° | 35km/h | 26775m | 4.9m/s | -47.9°C | 0% | 0hPa | 0V | 00:00:00 | 00:00:00 | 00:00:00 | |
| WB7NNF | 2026-08-30 06:55:32 | 47.69788 | -117.25337 | 311° | 13km/h | 26652m | 6.8m/s | -48.2°C | 0% | 0hPa | 0V | 00:00:00 | 00:00:00 | 00:00:00 | |
| WB7NNF | 2026-08-30 06:55:11 | 47.69801 | -117.25323 | 334° | 29km/h | 26529m | -6.0m/s | -48.4°C | 0% | 0hPa | 0V | 00:00:00 | 00:00:00 | 00:00:00 | |
| WB7NNF | 2026-08-30 06:54:49 | 47.69830 | -117.25320 | 143° | 40km/h | 26402m | 9.1m/s | -48.9°C | 0% | 0hPa | 0V | 00:00:00 | 00:00:00 | 00:00:00 | |
| WB7NNF | 2026-08-30 06:54:27 | 47.69850 | -117.25382 | 326° | 18km/h | 26277m | 7.7m/s | -49.6°C | 0% | 0hPa | 0V | 00:00:00 | 00:00:00 | 00:00:00 | |
| WB7NNF | 2026-08-30 06:53:59 | 47.69818 | -117.25399 | 189° | 20km/h | 26112m | -2.5m/s | -50.4°C | 0% | 0hPa | 0V | 00:00:00 | 00:00:00 | 00:00:00 | |
| WB7NNF | 2026-08-30 06:53:38 | 47.69748 | -117.25327 | 7° | 55km/h | 25979m | 5.8m/s | -50.7°C | 0% | 0hPa | 0V | 00:00:00 | 00:00:00 | 00:00:00 | |
| WB7NNF | 2026-08-30 06:53:17 | 47.69686 | -117.25212 | 288° | 24km/h | 25864m | 14.6m/s | -50.5°C | 0% | 0hPa | 0V | 00:00:00 | 00:00:00 | 00:00:00 | |
| WB7NNF | 2026-08-30 06:52:55 | 47.69677 | -117.25069 | 297° | 9km/h | 25732m | 11.5m/s | -50.1°C | 0% | 0hPa | 0V | 00:00:00 | 00:00:00 | 00:00:00 | |
| WB7NNF | 2026-08-30 06:52:33 | 47.69666 | -117.24921 | 249° | 33km/h | 25596m | 9.2m/s | -49.6°C | 0% | 0hPa | 0V | 00:00:00 | 00:00:00 | 00:00:00 | |
| WB7NNF | 2026-08-30 06:52:12 | 47.69705 | -117.24745 | 174° | 35km/h | 25475m | 12.5m/s | -49.8°C | 0% | 0hPa | 0V | 00:00:00 | 00:00:00 | 00:00:00 | |
| WB7NNF | 2026-08-30 06:51:50 | 47.69732 | -117.24622 | 282° | 47km/h | 25333m | 10.3m/s | -49.5°C | 0% | 0hPa | 0V | 00:00:00 | 00:00:00 | 00:00:00 | |
| WB7NNF | 2026-08-30 06:51:29 | 47.69760 | -117.24607 | 149° | 49km/h | 25212m | 9.3m/s | -49.6°C | 0% | 0hPa | 0V | 00:00:00 | 00:00:00 | 00:00:00 | |
| WB7NNF | 2026-08-30 06:51:08 | 47.69711 | -117.24743 | 50° | 33km/h | 25080m | 4.0m/s | -50.1°C | 0% | 0hPa | 0V | 00:00:00 | 00:00:00 | 00:00:00 | |
| WB7NNF | 2026-08-30 06:50:48 | 47.69616 | -117.24802 | 302° | 40km/h | 24957m | -1.9m/s | -49.7°C | 0% | 0hPa | 0V | 00:00:00 | 00:00:00 | 00:00:00 | |
| WB7NNF | 2026-08-30 06:50:26 | 47.69517 | -117.24853 | 86° | 44km/h | 24835m | 3.7m/s | -49.3°C | 0% | 0hPa | 0V | 00:00:00 | 00:00:00 | 00:00:00 | |
| WB7NNF | 2026-08-30 06:50:05 | 47.69429 | -117.24891 | 16° | 55km/h | 24706m | 7.0m/s | -48.7°C | 0% | 0hPa | 0V | 00:00:00 | 00:00:00 | 00:00:00 | |
| WB7NNF | 2026-08-30 06:49:44 | 47.69355 | -117.24881 | 330° | 31km/h | 24591m | 4.2m/s | -48.5°C | 0% | 0hPa | 0V | 00:00:00 | 00:00:00 | 00:00:00 | |
| WB7NNF | 2026-08-30 06:49:24 | 47.69316 | -117.24849 | 90° | 31km/h | 24459m | 3.0m/s | -48.9°C | 0% | 0hPa | 0V | 00:00:00 | 00:00:00 | 00:00:00 | |
| WB7NNF | 2026-08-30 06:49:02 | 47.69302 | -117.24850 | 276° | 16km/h | 24335m | 10.9m/s | -49.0°C | 0% | 0hPa | 0V | 00:00:00 | 00:00:00 | 00:00:00 | |
| WB7NNF | 2026-08-30 06:48:32 | 47.69132 | -117.24845 | 324° | 58km/h | 24150m | 12.1m/s | -49.0°C | 0% | 0hPa | 0V | 00:00:00 | 00:00:00 | 00:00:00 | |
| WB7NNF | 2026-08-30 06:48:11 | 47.69016 | -117.24774 | 332° | 51km/h | 24028m | 1.9m/s | -48.5°C | 0% | 0hPa | 0V | 00:00:00 | 00:00:00 | 00:00:00 | |
| WB7NNF | 2026-08-30 06:47:51 | 47.68940 | -117.24649 | 201° | 44km/h | 23908m | 7.2m/s | -48.5°C | 0% | 0hPa | 0V | 00:00:00 | 00:00:00 | 00:00:00 | |
| WB7NNF | 2026-08-30 06:47:30 | 47.68945 | -117.24535 | 251° | 29km/h | 23793m | 8.3m/s | -49.6°C | 0% | 0hPa | 0V | 00:00:00 | 00:00:00 | 00:00:00 | |
| WB7NNF | 2026-08-30 06:47:10 | 47.68995 | -117.24506 | 162° | 7km/h | 23668m | 8.6m/s | -49.8°C | 0% | 0hPa | 0V | 00:00:00 | 00:00:00 | 00:00:00 | |
| WB7NNF | 2026-08-30 06:46:49 | 47.68975 | -117.24551 | 49° | 58km/h | 23549m | 7.8m/s | -50.6°C | 0% | 0hPa | 0V | 00:00:00 | 00:00:00 | 00:00:00 | |
| WB7NNF | 2026-08-30 06:46:29 | 47.68902 | -117.24627 | 281° | 20km/h | 23427m | 7.9m/s | -51.7°C | 0% | 0hPa | 0V | 00:00:00 | 00:00:00 | 00:00:00 | |
| WB7NNF | 2026-08-30 06:46:08 | 47.68877 | -117.24692 | 23° | 15km/h | 23319m | 7.7m/s | -52.0°C | 0% | 0hPa | 0V | 00:00:00 | 00:00:00 | 00:00:00 | |
| WB7NNF | 2026-08-30 06:45:47 | 47.68843 | -117.24783 | 34° | 40km/h | 23209m | -0.3m/s | -52.5°C | 0% | 0hPa | 0V | 00:00:00 | 00:00:00 | 00:00:00 | |
| WB7NNF | 2026-08-30 06:45:27 | 47.68754 | -117.24868 | 114° | 31km/h | 23087m | 7.1m/s | -53.8°C | 0% | 0hPa | 0V | 00:00:00 | 00:00:00 | 00:00:00 | |
| WB7NNF | 2026-08-30 06:45:05 | 47.68669 | -117.24865 | 289° | 37km/h | 22974m | 0.4m/s | -53.9°C | 0% | 0hPa | 0V | 00:00:00 | 00:00:00 | 00:00:00 | |
| WB7NNF | 2026-08-30 06:44:44 | 47.68637 | -117.24857 | 69° | 31km/h | 22871m | 10.0m/s | -53.8°C | 0% | 0hPa | 0V | 00:00:00 | 00:00:00 | 00:00:00 | |
| WB7NNF | 2026-08-30 06:44:22 | 47.68599 | -117.24917 | 311° | 47km/h | 22752m | 3.2m/s | -53.9°C | 0% | 0hPa | 0V | 00:00:00 | 00:00:00 | 00:00:00 | |
| WB7NNF | 2026-08-30 06:44:01 | 47.68514 | -117.24908 | 72° | 44km/h | 22642m | 6.1m/s | -53.5°C | 0% | 0hPa | 0V | 00:00:00 | 00:00:00 | 00:00:00 | |
| WB7NNF | 2026-08-30 06:43:41 | 47.68404 | -117.24851 | 295° | 47km/h | 22534m | 9.0m/s | -53.7°C | 0% | 0hPa | 0V | 00:00:00 | 00:00:00 | 00:00:00 | |
| WB7NNF | 2026-08-30 06:43:16 | 47.68304 | -117.24743 | 292° | 9km/h | 22399m | 7.4m/s | -53.3°C | 0% | 0hPa | 0V | 00:00:00 | 00:00:00 | 00:00:00 | |
| WB7NNF | 2026-08-30 06:42:56 | 47.68259 | -117.24687 | 25° | 2km/h | 22281m | 8.9m/s | -53.3°C | 0% | 0hPa | 0V | 00:00:00 | 00:00:00 | 00:00:00 | |
| WB7NNF | 2026-08-30 06:42:36 | 47.68190 | -117.24677 | 39° | 24km/h | 22164m | 0.7m/s | -53.8°C | 0% | 0hPa | 0V | 00:00:00 | 00:00:00 | 00:00:00 | |
| WB7NNF | 2026-08-30 06:41:54 | 47.68124 | -117.24473 | 351° | 33km/h | 21940m | 9.8m/s | -54.5°C | 0% | 0hPa | 0V | 00:00:00 | 00:00:00 | 00:00:00 | |
| WB7NNF | 2026-08-30 06:41:13 | 47.68047 | -117.24312 | 57° | 24km/h | 21720m | 0.2m/s | -54.4°C | 0% | 0hPa | 0V | 00:00:00 | 00:00:00 | 00:00:00 | |
| WB7NNF | 2026-08-30 06:40:53 | 47.67979 | -117.24212 | 255° | 35km/h | 21602m | 2.6m/s | -54.1°C | 0% | 0hPa | 0V | 00:00:00 | 00:00:00 | 00:00:00 | |
| WB7NNF | 2026-08-30 06:40:30 | 47.67918 | -117.24097 | 276° | 40km/h | 21482m | 10.7m/s | -53.5°C | 0% | 0hPa | 0V | 00:00:00 | 00:00:00 | 00:00:00 | |
| WB7NNF | 2026-08-30 06:40:10 | 47.67911 | -117.23903 | 291° | 27km/h | 21373m | 10.3m/s | -53.4°C | 0% | 0hPa | 0V | 00:00:00 | 00:00:00 | 00:00:00 | |
| WB7NNF | 2026-08-30 06:39:49 | 47.67920 | -117.23705 | 219° | 37km/h | 21273m | 6.8m/s | -52.9°C | 0% | 0hPa | 0V | 00:00:00 | 00:00:00 | 00:00:00 | |
| WB7NNF | 2026-08-30 06:39:29 | 47.67916 | -117.23566 | 247° | 55km/h | 21150m | 6.4m/s | -53.6°C | 0% | 0hPa | 0V | 00:00:00 | 00:00:00 | 00:00:00 | |
| WB7NNF | 2026-08-30 06:39:08 | 47.67945 | -117.23416 | 201° | 27km/h | 21049m | 5.5m/s | -53.4°C | 0% | 0hPa | 0V | 00:00:00 | 00:00:00 | 00:00:00 | |
| WB7NNF | 2026-08-30 06:38:48 | 47.67995 | -117.23334 | 247° | 26km/h | 20925m | 10.4m/s | -53.1°C | 0% | 0hPa | 0V | 00:00:00 | 00:00:00 | 00:00:00 | |
| WB7NNF | 2026-08-30 06:38:27 | 47.68053 | -117.23331 | 250° | 26km/h | 20808m | 1.8m/s | -53.2°C | 0% | 0hPa | 0V | 00:00:00 | 00:00:00 | 00:00:00 | |
| WB7NNF | 2026-08-30 06:37:46 | 47.67986 | -117.23444 | 63° | 27km/h | 20570m | 6.9m/s | -53.6°C | 0% | 0hPa | 0V | 00:00:00 | 00:00:00 | 00:00:00 | |
| WB7NNF | 2026-08-30 06:37:25 | 47.67909 | -117.23463 | 285° | 27km/h | 20472m | 8.2m/s | -53.3°C | 0% | 0hPa | 0V | 00:00:00 | 00:00:00 | 00:00:00 | |
| WB7NNF | 2026-08-30 06:37:05 | 47.67851 | -117.23451 | 71° | 38km/h | 20361m | 3.0m/s | -53.1°C | 0% | 0hPa | 0V | 00:00:00 | 00:00:00 | 00:00:00 | |
| WB7NNF | 2026-08-30 06:36:43 | 47.67833 | -117.23453 | 266° | 35km/h | 20246m | 4.1m/s | -53.2°C | 0% | 0hPa | 0V | 00:00:00 | 00:00:00 | 00:00:00 | |
| WB7NNF | 2026-08-30 06:36:22 | 47.67774 | -117.23401 | 250° | 29km/h | 20137m | 7.6m/s | -53.5°C | 0% | 0hPa | 0V | 00:00:00 | 00:00:00 | 00:00:00 | |
| WB7NNF | 2026-08-30 06:36:00 | 47.67745 | -117.23312 | 303° | 58km/h | 20028m | 4.4m/s | -54.4°C | 0% | 0hPa | 0V | 00:00:00 | 00:00:00 | 00:00:00 | |
| WB7NNF | 2026-08-30 06:35:39 | 47.67776 | -117.23189 | 241° | 44km/h | 19913m | 7.8m/s | -53.6°C | 0% | 0hPa | 0V | 00:00:00 | 00:00:00 | 00:00:00 | |
| WB7NNF | 2026-08-30 06:35:18 | 47.67823 | -117.23066 | 286° | 42km/h | 19808m | -0.3m/s | -52.8°C | 0% | 0hPa | 0V | 00:00:00 | 00:00:00 | 00:00:00 | |
| WB7NNF | 2026-08-30 06:34:58 | 47.67900 | -117.22947 | 166° | 9km/h | 19692m | 5.9m/s | -52.7°C | 0% | 0hPa | 0V | 00:00:00 | 00:00:00 | 00:00:00 | |
| WB7NNF | 2026-08-30 06:34:37 | 47.67980 | -117.23000 | 142° | 35km/h | 19579m | 5.7m/s | -52.8°C | 0% | 0hPa | 0V | 00:00:00 | 00:00:00 | 00:00:00 | |
| WB7NNF | 2026-08-30 06:34:17 | 47.68069 | -117.23068 | 154° | 4km/h | 19472m | 7.9m/s | -53.8°C | 0% | 0hPa | 0V | 00:00:00 | 00:00:00 | 00:00:00 | |
| WB7NNF | 2026-08-30 06:33:55 | 47.68101 | -117.23159 | 161° | 27km/h | 19365m | 5.5m/s | -54.2°C | 0% | 0hPa | 0V | 00:00:00 | 00:00:00 | 00:00:00 | |
| WB7NNF | 2026-08-30 06:33:34 | 47.68129 | -117.23192 | 24° | 15km/h | 19257m | 5.7m/s | -53.7°C | 0% | 0hPa | 0V | 00:00:00 | 00:00:00 | 00:00:00 | |
| WB7NNF | 2026-08-30 06:33:12 | 47.68134 | -117.23269 | 230° | 27km/h | 19148m | 4.8m/s | -53.7°C | 0% | 0hPa | 0V | 00:00:00 | 00:00:00 | 00:00:00 | |
| WB7NNF | 2026-08-30 06:32:51 | 47.68124 | -117.23355 | 124° | 38km/h | 19034m | 8.5m/s | -53.5°C | 0% | 0hPa | 0V | 00:00:00 | 00:00:00 | 00:00:00 | |
| WB7NNF | 2026-08-30 06:32:29 | 47.68072 | -117.23473 | 50° | 40km/h | 18919m | 8.2m/s | -54.0°C | 0% | 0hPa | 0V | 00:00:00 | 00:00:00 | 00:00:00 | |
| WB7NNF | 2026-08-30 06:32:08 | 47.68001 | -117.23556 | 242° | 16km/h | 18819m | 8.0m/s | -54.3°C | 0% | 0hPa | 0V | 00:00:00 | 00:00:00 | 00:00:00 | |
| WB7NNF | 2026-08-30 06:31:48 | 47.67949 | -117.23667 | 62° | 20km/h | 18716m | 6.6m/s | -54.5°C | 0% | 0hPa | 0V | 00:00:00 | 00:00:00 | 00:00:00 | |
| WB7NNF | 2026-08-30 06:31:27 | 47.67912 | -117.23736 | 83° | 33km/h | 18607m | 10.0m/s | -54.0°C | 0% | 0hPa | 0V | 00:00:00 | 00:00:00 | 00:00:00 | |
| WB7NNF | 2026-08-30 06:31:05 | 47.67900 | -117.23826 | 107° | 46km/h | 18485m | 5.4m/s | -53.1°C | 0% | 0hPa | 0V | 00:00:00 | 00:00:00 | 00:00:00 | |
| WB7NNF | 2026-08-30 06:30:44 | 47.67892 | -117.23942 | 74° | 2km/h | 18370m | 3.7m/s | -52.6°C | 0% | 0hPa | 0V | 00:00:00 | 00:00:00 | 00:00:00 | |
| WB7NNF | 2026-08-30 06:30:24 | 47.67824 | -117.24169 | 70° | 2km/h | 18242m | 7.4m/s | -52.4°C | 0% | 0hPa | 0V | 00:00:00 | 00:00:00 | 00:00:00 | |
| WB7NNF | 2026-08-30 06:29:41 | 47.67574 | -117.24567 | 354° | 42km/h | 17999m | 4.0m/s | -52.9°C | 0% | 0hPa | 0V | 00:00:00 | 00:00:00 | 00:00:00 | |
| WB7NNF | 2026-08-30 06:29:20 | 47.67388 | -117.24727 | 7° | 62km/h | 17877m | 0.3m/s | -51.9°C | 0% | 0hPa | 0V | 00:00:00 | 00:00:00 | 00:00:00 | |
| WB7NNF | 2026-08-30 06:28:58 | 47.67199 | -117.24912 | 40° | 68km/h | 17762m | 0.4m/s | -51.4°C | 0% | 0hPa | 0V | 00:00:00 | 00:00:00 | 00:00:00 | |
| WB7NNF | 2026-08-30 06:28:37 | 47.67033 | -117.25056 | 354° | 55km/h | 17665m | 3.0m/s | -51.9°C | 0% | 0hPa | 0V | 00:00:00 | 00:00:00 | 00:00:00 | |
| WB7NNF | 2026-08-30 06:28:17 | 47.66844 | -117.25191 | 351° | 31km/h | 17571m | 6.1m/s | -51.8°C | 0% | 0hPa | 0V | 00:00:00 | 00:00:00 | 00:00:00 | |
| WB7NNF | 2026-08-30 06:27:55 | 47.66656 | -117.25331 | 51° | 35km/h | 17484m | 7.1m/s | -52.3°C | 0% | 0hPa | 0V | 00:00:00 | 00:00:00 | 00:00:00 | |
| WB7NNF | 2026-08-30 06:27:34 | 47.66519 | -117.25482 | 93° | 44km/h | 17398m | 5.2m/s | -52.3°C | 0% | 0hPa | 0V | 00:00:00 | 00:00:00 | 00:00:00 | |
| WB7NNF | 2026-08-30 06:27:14 | 47.66426 | -117.25635 | 38° | 38km/h | 17318m | 4.5m/s | -52.3°C | 0% | 0hPa | 0V | 00:00:00 | 00:00:00 | 00:00:00 | |
| WB7NNF | 2026-08-30 06:26:54 | 47.66367 | -117.25820 | 14° | 33km/h | 17230m | 1.4m/s | -52.0°C | 0% | 0hPa | 0V | 00:00:00 | 00:00:00 | 00:00:00 | |
| WB7NNF | 2026-08-30 06:26:32 | 47.66311 | -117.26030 | 356° | 31km/h | 17136m | 3.7m/s | -52.0°C | 0% | 0hPa | 0V | 00:00:00 | 00:00:00 | 00:00:00 | |
| WB7NNF | 2026-08-30 06:26:12 | 47.66237 | -117.26249 | 79° | 35km/h | 17043m | 4.6m/s | -52.1°C | 0% | 0hPa | 0V | 00:00:00 | 00:00:00 | 00:00:00 | |
| WB7NNF | 2026-08-30 06:25:51 | 47.66157 | -117.26434 | 92° | 31km/h | 16946m | 0.4m/s | -51.8°C | 0% | 0hPa | 0V | 00:00:00 | 00:00:00 | 00:00:00 | |
| WB7NNF | 2026-08-30 06:25:29 | 47.66045 | -117.26592 | 76° | 15km/h | 16844m | 3.6m/s | -51.4°C | 0% | 0hPa | 0V | 00:00:00 | 00:00:00 | 00:00:00 | |
| WB7NNF | 2026-08-30 06:25:08 | 47.65894 | -117.26707 | 288° | 5km/h | 16730m | 8.9m/s | -51.6°C | 0% | 0hPa | 0V | 00:00:00 | 00:00:00 | 00:00:00 | |
| WB7NNF | 2026-08-30 06:24:48 | 47.65739 | -117.26716 | 28° | 57km/h | 16619m | 4.4m/s | -51.1°C | 0% | 0hPa | 0V | 00:00:00 | 00:00:00 | 00:00:00 | |
| WB7NNF | 2026-08-30 06:24:27 | 47.65574 | -117.26719 | 3° | 60km/h | 16508m | 3.5m/s | -51.2°C | 0% | 0hPa | 0V | 00:00:00 | 00:00:00 | 00:00:00 | |
| WB7NNF | 2026-08-30 06:23:53 | 47.65294 | -117.26791 | 14° | 15km/h | 16329m | 10.6m/s | -50.6°C | 0% | 0hPa | 0V | 00:00:00 | 00:00:00 | 00:00:00 | |
| WB7NNF | 2026-08-30 06:23:33 | 47.65185 | -117.26871 | 29° | 44km/h | 16197m | 6.6m/s | -50.5°C | 0% | 0hPa | 0V | 00:00:00 | 00:00:00 | 00:00:00 | |
| WB7NNF | 2026-08-30 06:23:12 | 47.65092 | -117.27044 | 41° | 35km/h | 16092m | 6.5m/s | -49.8°C | 0% | 0hPa | 0V | 00:00:00 | 00:00:00 | 00:00:00 | |
| WB7NNF | 2026-08-30 06:22:52 | 47.64993 | -117.27258 | 45° | 37km/h | 15986m | 7.0m/s | -49.7°C | 0% | 0hPa | 0V | 00:00:00 | 00:00:00 | 00:00:00 | |
| WB7NNF | 2026-08-30 06:22:29 | 47.64917 | -117.27502 | 53° | 35km/h | 15878m | 7.2m/s | -50.2°C | 0% | 0hPa | 0V | 00:00:00 | 00:00:00 | 00:00:00 | |
| WB7NNF | 2026-08-30 06:22:09 | 47.64822 | -117.27785 | 39° | 35km/h | 15779m | 6.8m/s | -50.3°C | 0% | 0hPa | 0V | 00:00:00 | 00:00:00 | 00:00:00 | |
| WB7NNF | 2026-08-30 06:21:48 | 47.64736 | -117.28020 | 84° | 24km/h | 15686m | 5.0m/s | -50.2°C | 0% | 0hPa | 0V | 00:00:00 | 00:00:00 | 00:00:00 | |
| WB7NNF | 2026-08-30 06:21:28 | 47.64678 | -117.28194 | 13° | 15km/h | 15585m | 7.6m/s | -49.9°C | 0% | 0hPa | 0V | 00:00:00 | 00:00:00 | 00:00:00 | |
| WB7NNF | 2026-08-30 06:21:07 | 47.64645 | -117.28330 | 90° | 18km/h | 15490m | 6.2m/s | -49.5°C | 0% | 0hPa | 0V | 00:00:00 | 00:00:00 | 00:00:00 | |
| WB7NNF | 2026-08-30 06:20:45 | 47.64626 | -117.28494 | 3° | 29km/h | 15370m | 3.2m/s | -49.2°C | 0% | 0hPa | 0V | 00:00:00 | 00:00:00 | 00:00:00 | |
| WB7NNF | 2026-08-30 06:20:23 | 47.64603 | -117.28713 | 50° | 51km/h | 15260m | 9.7m/s | -48.7°C | 0% | 0hPa | 0V | 00:00:00 | 00:00:00 | 00:00:00 | |
| WB7NNF | 2026-08-30 06:20:02 | 47.64594 | -117.29056 | 87° | 47km/h | 15130m | 6.0m/s | -48.9°C | 0% | 0hPa | 0V | 00:00:00 | 00:00:00 | 00:00:00 | |
| WB7NNF | 2026-08-30 06:19:36 | 47.64577 | -117.29499 | 103° | 49km/h | 14996m | 6.7m/s | -48.1°C | 0% | 0hPa | 0V | 00:00:00 | 00:00:00 | 00:00:00 | |
| WB7NNF | 2026-08-30 06:19:14 | 47.64521 | -117.29843 | 89° | 66km/h | 14889m | 5.5m/s | -48.1°C | 0% | 0hPa | 0V | 00:00:00 | 00:00:00 | 00:00:00 | |
| WB7NNF | 2026-08-30 06:18:53 | 47.64410 | -117.30243 | 51° | 55km/h | 14773m | 4.2m/s | -48.4°C | 0% | 0hPa | 0V | 00:00:00 | 00:00:00 | 00:00:00 | |
| WB7NNF | 2026-08-30 06:18:32 | 47.64317 | -117.30585 | 61° | 35km/h | 14668m | 3.2m/s | -48.1°C | 0% | 0hPa | 0V | 00:00:00 | 00:00:00 | 00:00:00 | |
| WB7NNF | 2026-08-30 06:18:10 | 47.64194 | -117.30972 | 79° | 44km/h | 14552m | 6.5m/s | -47.5°C | 0% | 0hPa | 0V | 00:00:00 | 00:00:00 | 00:00:00 | |
| WB7NNF | 2026-08-30 06:17:49 | 47.64091 | -117.31305 | 83° | 31km/h | 14455m | 6.5m/s | -47.9°C | 0% | 0hPa | 0V | 00:00:00 | 00:00:00 | 00:00:00 | |
| WB7NNF | 2026-08-30 06:17:29 | 47.63951 | -117.31658 | 70° | 51km/h | 14356m | 2.3m/s | -47.7°C | 0% | 0hPa | 0V | 00:00:00 | 00:00:00 | 00:00:00 | |
| WB7NNF | 2026-08-30 06:17:07 | 47.63763 | -117.32021 | 34° | 77km/h | 14251m | 3.9m/s | -47.8°C | 0% | 0hPa | 0V | 00:00:00 | 00:00:00 | 00:00:00 | |
| WB7NNF | 2026-08-30 06:16:46 | 47.63586 | -117.32324 | 35° | 68km/h | 14156m | 3.8m/s | -48.0°C | 0% | 0hPa | 0V | 00:00:00 | 00:00:00 | 00:00:00 | |
| WB7NNF | 2026-08-30 06:16:24 | 47.63440 | -117.32697 | 89° | 40km/h | 14052m | 6.4m/s | -47.7°C | 0% | 0hPa | 0V | 00:00:00 | 00:00:00 | 00:00:00 | |
| WB7NNF | 2026-08-30 06:16:03 | 47.63336 | -117.33065 | 73° | 64km/h | 13958m | 5.0m/s | -47.4°C | 0% | 0hPa | 0V | 00:00:00 | 00:00:00 | 00:00:00 | |
| WB7NNF | 2026-08-30 06:15:43 | 47.63279 | -117.33428 | 108° | 46km/h | 13873m | 1.9m/s | -48.0°C | 0% | 0hPa | 0V | 00:00:00 | 00:00:00 | 00:00:00 | |
| WB7NNF | 2026-08-30 06:15:09 | 47.63155 | -117.34030 | 97° | 49km/h | 13740m | 2.9m/s | -47.8°C | 0% | 0hPa | 0V | 00:00:00 | 00:00:00 | 00:00:00 | |
| WB7NNF | 2026-08-30 06:14:47 | 47.63074 | -117.34353 | 75° | 47km/h | 13651m | 6.3m/s | -47.6°C | 0% | 0hPa | 0V | 00:00:00 | 00:00:00 | 00:00:00 | |
| WB7NNF | 2026-08-30 06:14:26 | 47.62990 | -117.34697 | 60° | 29km/h | 13558m | 6.8m/s | -47.6°C | 0% | 0hPa | 0V | 00:00:00 | 00:00:00 | 00:00:00 | |
| WB7NNF | 2026-08-30 06:14:05 | 47.62901 | -117.34969 | 70° | 60km/h | 13474m | 2.2m/s | -47.3°C | 0% | 0hPa | 0V | 00:00:00 | 00:00:00 | 00:00:00 | |
| WB7NNF | 2026-08-30 06:13:45 | 47.62789 | -117.35211 | 61° | 57km/h | 13387m | 5.0m/s | -47.0°C | 0% | 0hPa | 0V | 00:00:00 | 00:00:00 | 00:00:00 | |
| WB7NNF | 2026-08-30 06:13:24 | 47.62697 | -117.35456 | 92° | 31km/h | 13288m | 4.3m/s | -46.9°C | 0% | 0hPa | 0V | 00:00:00 | 00:00:00 | 00:00:00 | |
| WB7NNF | 2026-08-30 06:13:04 | 47.62626 | -117.35681 | 44° | 31km/h | 13186m | 6.5m/s | -46.5°C | 0% | 0hPa | 0V | 00:00:00 | 00:00:00 | 00:00:00 | |
| WB7NNF | 2026-08-30 06:12:43 | 47.62572 | -117.35875 | 46° | 27km/h | 13089m | 4.5m/s | -45.9°C | 0% | 0hPa | 0V | 00:00:00 | 00:00:00 | 00:00:00 | |
| WB7NNF | 2026-08-30 06:12:21 | 47.62515 | -117.36065 | 102° | 22km/h | 12975m | 4.1m/s | -45.8°C | 0% | 0hPa | 0V | 00:00:00 | 00:00:00 | 00:00:00 | |
| WB7NNF | 2026-08-30 06:12:00 | 47.62505 | -117.36272 | 79° | 20km/h | 12879m | 4.5m/s | -45.6°C | 0% | 0hPa | 0V | 00:00:00 | 00:00:00 | 00:00:00 | |
| WB7NNF | 2026-08-30 06:11:40 | 47.62519 | -117.36536 | 87° | 40km/h | 12777m | 6.3m/s | -45.9°C | 0% | 0hPa | 0V | 00:00:00 | 00:00:00 | 00:00:00 | |
| WB7NNF | 2026-08-30 06:11:19 | 47.62527 | -117.36829 | 77° | 53km/h | 12683m | 3.5m/s | -46.1°C | 0% | 0hPa | 0V | 00:00:00 | 00:00:00 | 00:00:00 | |
| WB7NNF | 2026-08-30 06:10:59 | 47.62511 | -117.37154 | 60° | 35km/h | 12586m | 5.8m/s | -45.9°C | 0% | 0hPa | 0V | 00:00:00 | 00:00:00 | 00:00:00 | |
| WB7NNF | 2026-08-30 06:10:38 | 47.62451 | -117.37434 | 74° | 46km/h | 12491m | 5.0m/s | -45.4°C | 0% | 0hPa | 0V | 00:00:00 | 00:00:00 | 00:00:00 | |
| WB7NNF | 2026-08-30 06:10:18 | 47.62377 | -117.37705 | 55° | 35km/h | 12393m | 3.8m/s | -45.1°C | 0% | 0hPa | 0V | 00:00:00 | 00:00:00 | 00:00:00 | |
| WB7NNF | 2026-08-30 06:09:57 | 47.62312 | -117.37987 | 55° | 51km/h | 12305m | 3.4m/s | -44.9°C | 0% | 0hPa | 0V | 00:00:00 | 00:00:00 | 00:00:00 | |
| WB7NNF | 2026-08-30 06:09:37 | 47.62242 | -117.38291 | 74° | 51km/h | 12216m | 6.1m/s | -45.0°C | 0% | 0hPa | 0V | 00:00:00 | 00:00:00 | 00:00:00 | |
| WB7NNF | 2026-08-30 06:09:16 | 47.62194 | -117.38561 | 58° | 37km/h | 12127m | 4.6m/s | -45.4°C | 0% | 0hPa | 0V | 00:00:00 | 00:00:00 | 00:00:00 | |
| WB7NNF | 2026-08-30 06:08:56 | 47.62146 | -117.38879 | 61° | 47km/h | 12036m | 5.3m/s | -45.0°C | 0% | 0hPa | 0V | 00:00:00 | 00:00:00 | 00:00:00 | |
| WB7NNF | 2026-08-30 06:08:35 | 47.62119 | -117.39192 | 88° | 20km/h | 11950m | 4.6m/s | -44.8°C | 0% | 0hPa | 0V | 00:00:00 | 00:00:00 | 00:00:00 | |
| WB7NNF | 2026-08-30 06:08:15 | 47.62109 | -117.39515 | 95° | 38km/h | 11858m | 5.0m/s | -44.5°C | 0% | 0hPa | 0V | 00:00:00 | 00:00:00 | 00:00:00 | |
| WB7NNF | 2026-08-30 06:07:54 | 47.62120 | -117.39842 | 90° | 51km/h | 11765m | 3.6m/s | -44.1°C | 0% | 0hPa | 0V | 00:00:00 | 00:00:00 | 00:00:00 | |
| WB7NNF | 2026-08-30 06:07:33 | 47.62127 | -117.40153 | 101° | 58km/h | 11681m | 2.8m/s | -43.6°C | 0% | 0hPa | 0V | 00:00:00 | 00:00:00 | 00:00:00 | |
| WB7NNF | 2026-08-30 06:07:13 | 47.62152 | -117.40490 | 89° | 26km/h | 11586m | 4.6m/s | -43.2°C | 0% | 0hPa | 0V | 00:00:00 | 00:00:00 | 00:00:00 | |
| WB7NNF | 2026-08-30 06:06:52 | 47.62144 | -117.40807 | 50° | 29km/h | 11492m | 2.0m/s | -43.2°C | 0% | 0hPa | 0V | 00:00:00 | 00:00:00 | 00:00:00 | |
| WB7NNF | 2026-08-30 06:06:32 | 47.62125 | -117.41092 | 61° | 51km/h | 11395m | 4.6m/s | -42.8°C | 0% | 0hPa | 0V | 00:00:00 | 00:00:00 | 00:00:00 | |
| WB7NNF | 2026-08-30 06:06:10 | 47.62095 | -117.41369 | 93° | 55km/h | 11303m | 2.9m/s | -42.4°C | 0% | 0hPa | 0V | 00:00:00 | 00:00:00 | 00:00:00 | |
| WB7NNF | 2026-08-30 06:05:49 | 47.62040 | -117.41632 | 65° | 22km/h | 11184m | 7.7m/s | -41.4°C | 0% | 0hPa | 0V | 00:00:00 | 00:00:00 | 00:00:00 | |
| WB7NNF | 2026-08-30 06:05:28 | 47.61943 | -117.41853 | 56° | 37km/h | 11081m | 4.6m/s | -40.9°C | 0% | 0hPa | 0V | 00:00:00 | 00:00:00 | 00:00:00 | |
| WB7NNF | 2026-08-30 06:05:08 | 47.61860 | -117.42077 | 97° | 35km/h | 10992m | 4.5m/s | -41.0°C | 0% | 0hPa | 0V | 00:00:00 | 00:00:00 | 00:00:00 | |
| WB7NNF | 2026-08-30 06:04:46 | 47.61797 | -117.42276 | 61° | 24km/h | 10896m | 6.3m/s | -41.0°C | 0% | 0hPa | 0V | 00:00:00 | 00:00:00 | 00:00:00 | |
| WB7NNF | 2026-08-30 06:04:25 | 47.61767 | -117.42487 | 77° | 38km/h | 10804m | 4.2m/s | -41.0°C | 0% | 0hPa | 0V | 00:00:00 | 00:00:00 | 00:00:00 | |
| WB7NNF | 2026-08-30 06:04:03 | 47.61775 | -117.42753 | 113° | 38km/h | 10714m | 2.7m/s | -40.8°C | 0% | 0hPa | 0V | 00:00:00 | 00:00:00 | 00:00:00 | |
| WB7NNF | 2026-08-30 06:03:42 | 47.61766 | -117.43047 | 82° | 20km/h | 10628m | 3.6m/s | -41.4°C | 0% | 0hPa | 0V | 00:00:00 | 00:00:00 | 00:00:00 | |
| WB7NNF | 2026-08-30 06:03:20 | 47.61745 | -117.43279 | 120° | 15km/h | 10527m | 4.9m/s | -41.3°C | 0% | 0hPa | 0V | 00:00:00 | 00:00:00 | 00:00:00 | |
| WB7NNF | 2026-08-30 06:02:39 | 47.61783 | -117.43503 | 190° | 7km/h | 10346m | 3.8m/s | -40.6°C | 0% | 0hPa | 0V | 00:00:00 | 00:00:00 | 00:00:00 | |
| WB7NNF | 2026-08-30 06:02:18 | 47.61822 | -117.43564 | 71° | 7km/h | 10260m | 3.0m/s | -41.1°C | 0% | 0hPa | 0V | 00:00:00 | 00:00:00 | 00:00:00 | |
| WB7NNF | 2026-08-30 06:01:58 | 47.61853 | -117.43685 | 163° | 7km/h | 10166m | 5.4m/s | -41.2°C | 0% | 0hPa | 0V | 00:00:00 | 00:00:00 | 00:00:00 | |
| WB7NNF | 2026-08-30 06:01:37 | 47.61880 | -117.43773 | 73° | 7km/h | 10075m | 5.2m/s | -41.0°C | 0% | 0hPa | 0V | 00:00:00 | 00:00:00 | 00:00:00 | |
| WB7NNF | 2026-08-30 06:01:16 | 47.61882 | -117.43863 | 137° | 20km/h | 9986m | 4.2m/s | -40.3°C | 0% | 0hPa | 0V | 00:00:00 | 00:00:00 | 00:00:00 | |
| WB7NNF | 2026-08-30 06:00:56 | 47.61869 | -117.43973 | 49° | 24km/h | 9878m | 7.4m/s | -40.0°C | 0% | 0hPa | 0V | 00:00:00 | 00:00:00 | 00:00:00 | |
| WB7NNF | 2026-08-30 06:00:35 | 47.61886 | -117.44112 | 106° | 40km/h | 9767m | 5.2m/s | -40.4°C | 0% | 0hPa | 0V | 00:00:00 | 00:00:00 | 00:00:00 | |
| WB7NNF | 2026-08-30 05:59:54 | 47.61976 | -117.44494 | 118° | 53km/h | 9566m | 4.7m/s | -40.4°C | 0% | 0hPa | 0V | 00:00:00 | 00:00:00 | 00:00:00 | |
| WB7NNF | 2026-08-30 05:59:34 | 47.62113 | -117.44714 | 125° | 44km/h | 9445m | 5.0m/s | -40.5°C | 0% | 0hPa | 0V | 00:00:00 | 00:00:00 | 00:00:00 | |
| WB7NNF | 2026-08-30 05:59:13 | 47.62324 | -117.44882 | 162° | 37km/h | 9361m | 3.9m/s | -41.0°C | 0% | 0hPa | 0V | 00:00:00 | 00:00:00 | 00:00:00 | |
| WB7NNF | 2026-08-30 05:58:53 | 47.62525 | -117.45126 | 154° | 58km/h | 9272m | 3.7m/s | -40.5°C | 0% | 0hPa | 0V | 00:00:00 | 00:00:00 | 00:00:00 | |
| WB7NNF | 2026-08-30 05:58:32 | 47.62718 | -117.45398 | 129° | 46km/h | 9190m | 3.1m/s | -40.3°C | 0% | 0hPa | 0V | 00:00:00 | 00:00:00 | 00:00:00 | |
| WB7NNF | 2026-08-30 05:58:12 | 47.62902 | -117.45737 | 112° | 58km/h | 9108m | 4.5m/s | -41.6°C | 0% | 0hPa | 0V | 00:00:00 | 00:00:00 | 00:00:00 | |
| WB7NNF | 2026-08-30 05:57:51 | 47.63044 | -117.46059 | 144° | 38km/h | 9022m | 3.1m/s | -42.0°C | 0% | 0hPa | 0V | 00:00:00 | 00:00:00 | 00:00:00 | |
| WB7NNF | 2026-08-30 05:57:31 | 47.63175 | -117.46363 | 126° | 51km/h | 8931m | 3.5m/s | -41.7°C | 0% | 0hPa | 0V | 00:00:00 | 00:00:00 | 00:00:00 | |
| WB7NNF | 2026-08-30 05:57:10 | 47.63287 | -117.46586 | 165° | 47km/h | 8840m | 3.0m/s | -41.9°C | 0% | 0hPa | 0V | 00:00:00 | 00:00:00 | 00:00:00 | |
| WB7NNF | 2026-08-30 05:56:50 | 47.63442 | -117.46758 | 161° | 33km/h | 8728m | 5.9m/s | -43.6°C | 0% | 0hPa | 0V | 00:00:00 | 00:00:00 | 00:00:00 | |
| WB7NNF | 2026-08-30 05:56:29 | 47.63605 | -117.46898 | 176° | 26km/h | 8626m | 4.1m/s | -43.0°C | 0% | 0hPa | 0V | 00:00:00 | 00:00:00 | 00:00:00 | |
| WB7NNF | 2026-08-30 05:56:08 | 47.63753 | -117.47077 | 152° | 40km/h | 8525m | 8.0m/s | -43.3°C | 0% | 0hPa | 0V | 00:00:00 | 00:00:00 | 00:00:00 | |
| WB7NNF | 2026-08-30 05:55:48 | 47.63909 | -117.47259 | 124° | 18km/h | 8427m | 2.9m/s | -42.7°C | 0% | 0hPa | 0V | 00:00:00 | 00:00:00 | 00:00:00 | |
| WB7NNF | 2026-08-30 05:55:27 | 47.64046 | -117.47475 | 138° | 44km/h | 8315m | 6.9m/s | -41.8°C | 0% | 0hPa | 0V | 00:00:00 | 00:00:00 | 00:00:00 | |
| WB7NNF | 2026-08-30 05:55:07 | 47.64149 | -117.47672 | 114° | 40km/h | 8210m | 5.0m/s | -41.1°C | 0% | 0hPa | 0V | 00:00:00 | 00:00:00 | 00:00:00 | |
| WB7NNF | 2026-08-30 05:54:46 | 47.64239 | -117.47803 | 156° | 33km/h | 8113m | 3.4m/s | -40.8°C | 0% | 0hPa | 0V | 00:00:00 | 00:00:00 | 00:00:00 | |
| WB7NNF | 2026-08-30 05:54:26 | 47.64314 | -117.47931 | 109° | 24km/h | 8017m | 5.7m/s | -40.3°C | 0% | 0hPa | 0V | 00:00:00 | 00:00:00 | 00:00:00 | |
| WB7NNF | 2026-08-30 05:54:05 | 47.64369 | -117.48067 | 145° | 26km/h | 7940m | 5.6m/s | -39.6°C | 0% | 0hPa | 0V | 00:00:00 | 00:00:00 | 00:00:00 | |
| WB7NNF | 2026-08-30 05:53:45 | 47.64440 | -117.48233 | 152° | 11km/h | 7855m | 4.3m/s | -38.9°C | 0% | 0hPa | 0V | 00:00:00 | 00:00:00 | 00:00:00 | |
| WB7NNF | 2026-08-30 05:53:24 | 47.64499 | -117.48412 | 132° | 7km/h | 7775m | 3.3m/s | -38.2°C | 0% | 0hPa | 0V | 00:00:00 | 00:00:00 | 00:00:00 | |
| WB7NNF | 2026-08-30 05:53:04 | 47.64568 | -117.48584 | 154° | 26km/h | 7686m | 4.9m/s | -37.6°C | 0% | 0hPa | 0V | 00:00:00 | 00:00:00 | 00:00:00 | |
| WB7NNF | 2026-08-30 05:52:43 | 47.64638 | -117.48767 | 133° | 44km/h | 7593m | 7.7m/s | -37.0°C | 0% | 0hPa | 0V | 00:00:00 | 00:00:00 | 00:00:00 | |
| WB7NNF | 2026-08-30 05:52:23 | 47.64716 | -117.48926 | 172° | 15km/h | 7490m | 4.5m/s | -36.1°C | 0% | 0hPa | 0V | 00:00:00 | 00:00:00 | 00:00:00 | |
| WB7NNF | 2026-08-30 05:52:02 | 47.64794 | -117.49068 | 93° | 22km/h | 7394m | 2.3m/s | -35.4°C | 0% | 0hPa | 0V | 00:00:00 | 00:00:00 | 00:00:00 | |
| WB7NNF | 2026-08-30 05:51:42 | 47.64870 | -117.49259 | 122° | 35km/h | 7293m | 4.4m/s | -34.5°C | 0% | 0hPa | 0V | 00:00:00 | 00:00:00 | 00:00:00 | |
| WB7NNF | 2026-08-30 05:51:21 | 47.64957 | -117.49453 | 69° | 22km/h | 7195m | 6.5m/s | -33.7°C | 0% | 0hPa | 0V | 00:00:00 | 00:00:00 | 00:00:00 | |
| WB7NNF | 2026-08-30 05:51:00 | 47.65064 | -117.49621 | 146° | 16km/h | 7090m | 6.3m/s | -32.8°C | 0% | 0hPa | 0V | 00:00:00 | 00:00:00 | 00:00:00 | |
| WB7NNF | 2026-08-30 05:50:40 | 47.65151 | -117.49802 | 128° | 24km/h | 6994m | 5.0m/s | -32.0°C | 0% | 0hPa | 0V | 00:00:00 | 00:00:00 | 00:00:00 | |
| WB7NNF | 2026-08-30 05:50:19 | 47.65249 | -117.49974 | 128° | 35km/h | 6905m | 4.2m/s | -31.2°C | 0% | 0hPa | 0V | 00:00:00 | 00:00:00 | 00:00:00 | |
| WB7NNF | 2026-08-30 05:49:59 | 47.65344 | -117.50163 | 159° | 29km/h | 6802m | 3.2m/s | -30.3°C | 0% | 0hPa | 0V | 00:00:00 | 00:00:00 | 00:00:00 | |
| WB7NNF | 2026-08-30 05:49:38 | 47.65425 | -117.50368 | 114° | 42km/h | 6693m | 5.8m/s | -29.4°C | 0% | 0hPa | 0V | 00:00:00 | 00:00:00 | 00:00:00 | |
| WB7NNF | 2026-08-30 05:49:16 | 47.65494 | -117.50554 | 97° | 20km/h | 6597m | 4.6m/s | -28.6°C | 0% | 0hPa | 0V | 00:00:00 | 00:00:00 | 00:00:00 | |
| WB7NNF | 2026-08-30 05:48:54 | 47.65577 | -117.50709 | 91° | 31km/h | 6499m | 4.1m/s | -27.8°C | 0% | 0hPa | 0V | 00:00:00 | 00:00:00 | 00:00:00 | |
| WB7NNF | 2026-08-30 05:48:33 | 47.65645 | -117.50906 | 107° | 35km/h | 6405m | 3.6m/s | -27.0°C | 0% | 0hPa | 0V | 00:00:00 | 00:00:00 | 00:00:00 | |
| WB7NNF | 2026-08-30 05:47:52 | 47.65803 | -117.51250 | 128° | 40km/h | 6198m | 4.8m/s | -25.8°C | 0% | 0hPa | 0V | 00:00:00 | 00:00:00 | 00:00:00 | |
| WB7NNF | 2026-08-30 05:47:31 | 47.65879 | -117.51423 | 155° | 15km/h | 6098m | 3.9m/s | -24.9°C | 0% | 0hPa | 0V | 00:00:00 | 00:00:00 | 00:00:00 | |
| WB7NNF | 2026-08-30 05:47:11 | 47.65971 | -117.51561 | 173° | 29km/h | 5996m | 5.9m/s | -24.1°C | 0% | 0hPa | 0V | 00:00:00 | 00:00:00 | 00:00:00 | |
| WB7NNF | 2026-08-30 05:46:50 | 47.66053 | -117.51690 | 101° | 31km/h | 5898m | 4.3m/s | -23.3°C | 0% | 0hPa | 0V | 00:00:00 | 00:00:00 | 00:00:00 | |
| WB7NNF | 2026-08-30 05:46:30 | 47.66149 | -117.51837 | 151° | 27km/h | 5799m | 6.3m/s | -22.4°C | 0% | 0hPa | 0V | 00:00:00 | 00:00:00 | 00:00:00 | |
| WB7NNF | 2026-08-30 05:46:09 | 47.66241 | -117.52025 | 127° | 37km/h | 5690m | 4.4m/s | -21.5°C | 0% | 0hPa | 0V | 00:00:00 | 00:00:00 | 00:00:00 | |
| WB7NNF | 2026-08-30 05:45:49 | 47.66334 | -117.52220 | 118° | 29km/h | 5602m | 5.5m/s | -21.0°C | 0% | 0hPa | 0V | 00:00:00 | 00:00:00 | 00:00:00 | |
| WB7NNF | 2026-08-30 05:45:28 | 47.66451 | -117.52373 | 129° | 42km/h | 5502m | 5.7m/s | -20.5°C | 0% | 0hPa | 0V | 00:00:00 | 00:00:00 | 00:00:00 | |
| WB7NNF | 2026-08-30 05:45:08 | 47.66564 | -117.52586 | 108° | 27km/h | 5408m | 4.4m/s | -20.1°C | 0% | 0hPa | 0V | 00:00:00 | 00:00:00 | 00:00:00 | |
| WB7NNF | 2026-08-30 05:44:47 | 47.66661 | -117.52788 | 122° | 29km/h | 5321m | 6.9m/s | -19.5°C | 0% | 0hPa | 0V | 00:00:00 | 00:00:00 | 00:00:00 | |
| WB7NNF | 2026-08-30 05:44:27 | 47.66751 | -117.52998 | 136° | 29km/h | 5222m | 3.3m/s | -18.6°C | 0% | 0hPa | 0V | 00:00:00 | 00:00:00 | 00:00:00 | |
| WB7NNF | 2026-08-30 05:44:06 | 47.66809 | -117.53231 | 90° | 20km/h | 5129m | 3.7m/s | -17.9°C | 0% | 0hPa | 0V | 00:00:00 | 00:00:00 | 00:00:00 | |
| WB7NNF | 2026-08-30 05:43:46 | 47.66836 | -117.53501 | 77° | 44km/h | 5023m | 4.0m/s | -17.3°C | 0% | 0hPa | 0V | 00:00:00 | 00:00:00 | 00:00:00 | |
| WB7NNF | 2026-08-30 05:43:25 | 47.66850 | -117.53799 | 86° | 51km/h | 4918m | 3.8m/s | -16.7°C | 0% | 0hPa | 0V | 00:00:00 | 00:00:00 | 00:00:00 | |
| WB7NNF | 2026-08-30 05:43:00 | 47.66897 | -117.54271 | 81° | 44km/h | 4782m | 6.9m/s | -16.0°C | 0% | 0hPa | 0V | 00:00:00 | 00:00:00 | 00:00:00 | |
| WB7NNF | 2026-08-30 05:42:36 | 47.66942 | -117.54677 | 106° | 46km/h | 4660m | 8.0m/s | -15.3°C | 0% | 0hPa | 0V | 00:00:00 | 00:00:00 | 00:00:00 | |
| WB7NNF | 2026-08-30 05:42:05 | 47.67041 | -117.55167 | 107° | 60km/h | 4500m | 2.9m/s | -14.4°C | 0% | 0hPa | 0V | 00:00:00 | 00:00:00 | 00:00:00 | |
| WB7NNF | 2026-08-30 05:41:41 | 47.67121 | -117.55489 | 114° | 57km/h | 4399m | 4.5m/s | -13.7°C | 0% | 0hPa | 0V | 00:00:00 | 00:00:00 | 00:00:00 | |
| WB7NNF | 2026-08-30 05:41:20 | 47.67196 | -117.55829 | 114° | 31km/h | 4282m | 4.3m/s | -12.9°C | 0% | 0hPa | 0V | 00:00:00 | 00:00:00 | 00:00:00 | |
| WB7NNF | 2026-08-30 05:40:59 | 47.67290 | -117.56106 | 91° | 35km/h | 4177m | 4.7m/s | -11.6°C | 0% | 0hPa | 0V | 00:00:00 | 00:00:00 | 00:00:00 | |
| WB7NNF | 2026-08-30 05:40:33 | 47.67327 | -117.56483 | 130° | 31km/h | 4035m | 5.4m/s | -11.1°C | 0% | 0hPa | 0V | 00:00:00 | 00:00:00 | 00:00:00 | |
| WB7NNF | 2026-08-30 05:40:11 | 47.67376 | -117.56774 | 118° | 40km/h | 3908m | 6.5m/s | -10.1°C | 0% | 0hPa | 0V | 00:00:00 | 00:00:00 | 00:00:00 |